Time;durP1;ratioP1;P1;durP2;ratioP2;P2;SDS_P1;SDS_P2;PMS_P1;PMS_P2;Temp;Humidity;BMP_temperature;BMP_pressure;BME280_temperature;BME280_humidity;BME280_pressure;Samples;Min_cycle;Max_cycle;Signal;HPM_P1;HPM_P2
2021/11/14 00:00:49;;;;;;;45.03;25.70;;;;;;;7.17;73.97;100251.03;4414179;32;33184;-78
2021/11/14 00:03:20;;;;;;;39.53;23.95;;;;;;;7.35;74.01;100247.88;4413487;32;35550;-78
2021/11/14 00:05:49;;;;;;;39.35;25.67;;;;;;;7.46;73.35;100245.28;4414343;32;34295;-78
2021/11/14 00:08:19;;;;;;;48.00;25.27;;;;;;;7.39;73.65;100243.19;4386158;32;32155;-78
2021/11/14 00:10:49;;;;;;;43.13;26.15;;;;;;;7.35;73.76;100244.41;4401186;32;34164;-78
2021/11/14 00:13:19;;;;;;;45.40;25.27;;;;;;;7.54;72.89;100240.25;4412042;32;35751;-78
2021/11/14 00:15:47;;;;;;;37.38;25.23;;;;;;;7.55;72.72;100241.94;4415359;32;34370;-78
2021/11/14 00:18:16;;;;;;;43.00;25.37;;;;;;;7.45;73.09;100242.75;4413365;32;33196;-78
2021/11/14 00:20:45;;;;;;;39.75;25.27;;;;;;;7.36;73.27;100246.91;4414972;32;34365;-78
2021/11/14 00:23:13;;;;;;;46.03;26.27;;;;;;;7.12;74.41;100240.78;4412531;32;35076;-78
2021/11/14 00:25:41;;;;;;;35.50;25.98;;;;;;;7.26;73.96;100247.72;4414676;32;35081;-79
2021/11/14 00:28:09;;;;;;;;;;;;;;;7.13;74.56;100249.56;4406256;32;33669;-78
2021/11/14 00:30:38;;;;;;;42.62;25.37;;;;;;;7.33;73.72;100241.84;4426756;32;34805;-78
2021/11/14 00:33:11;;;;;;;40.70;25.62;;;;;;;7.30;73.85;100244.75;4399693;32;35400;-79
2021/11/14 00:35:40;;;;;;;35.05;21.62;;;;;;;7.29;74.03;100237.72;4401166;32;34808;-78
2021/11/14 00:38:08;;;;;;;43.25;25.33;;;;;;;7.52;72.74;100236.03;4398888;32;32640;-78
2021/11/14 00:40:38;;;;;;;53.55;27.00;;;;;;;7.43;73.08;100231.41;4401022;32;33999;-78
2021/11/14 00:43:07;;;;;;;34.15;26.25;;;;;;;7.10;74.35;100231.28;4411643;32;35504;-79
2021/11/14 00:45:36;;;;;;;43.58;27.67;;;;;;;7.24;74.33;100228.44;4413381;32;34803;-78
2021/11/14 00:48:06;;;;;;;48.65;23.02;;;;;;;7.52;73.09;100233.37;4413367;32;34445;-78
2021/11/14 00:50:38;;;;;;;41.65;22.08;;;;;;;7.41;73.67;100233.34;4398952;32;34415;-78
2021/11/14 00:53:06;;;;;;;48.50;23.48;;;;;;;7.55;72.66;100217.28;4400545;32;35870;-78
2021/11/14 00:55:35;;;;;;;;;;;;;;;7.34;73.75;100225.00;4426221;32;33841;-78
2021/11/14 00:58:03;;;;;;;45.00;23.52;;;;;;;7.47;73.42;100225.78;4385106;32;32082;-78
2021/11/14 01:00:32;;;;;;;38.90;22.20;;;;;;;7.56;72.60;100221.62;4413175;32;34144;-79
2021/11/14 01:03:02;;;;;;;57.70;26.77;;;;;;;7.31;73.50;100225.25;4399314;32;33955;-79
2021/11/14 01:05:31;;;;;;;50.35;28.25;;;;;;;7.54;72.71;100226.19;4399252;32;34090;-78
2021/11/14 01:08:04;;;;;;;47.05;24.65;;;;;;;7.15;74.31;100226.47;4401554;32;32531;-79
2021/11/14 01:10:38;;;;;;;58.50;27.30;;;;;;;7.11;74.34;100232.97;4396133;32;36471;-78
2021/11/14 01:13:07;;;;;;;39.53;24.70;;;;;;;7.42;73.19;100208.56;4401607;32;34508;-78
2021/11/14 01:15:38;;;;;;;56.35;25.30;;;;;;;7.01;74.71;100216.06;4402766;32;36376;-79
2021/11/14 01:18:07;;;;;;;41.80;24.70;;;;;;;7.44;73.36;100204.00;4399863;32;33496;-78
2021/11/14 01:20:41;;;;;;;42.25;26.12;;;;;;;7.49;73.02;100213.31;4425681;32;33076;-78
2021/11/14 01:23:11;;;;;;;41.63;24.08;;;;;;;7.53;73.35;100238.56;4415288;32;35458;-79
2021/11/14 01:25:40;;;;;;;39.15;27.62;;;;;;;7.61;72.57;100233.56;4414658;32;33201;-79
2021/11/14 01:28:08;;;;;;;37.47;22.95;;;;;;;7.80;72.08;100225.03;4391686;32;32052;-79
2021/11/14 01:30:41;;;;;;;36.28;23.92;;;;;;;8.09;70.51;100221.88;4415659;32;32650;-78
2021/11/14 01:33:10;;;;;;;42.92;25.17;;;;;;;8.01;70.57;100221.59;4410471;32;35606;-79
2021/11/14 01:35:38;;;;;;;37.58;22.13;;;;;;;7.97;70.60;100228.13;4402747;32;34708;-78
2021/11/14 01:38:08;;;;;;;43.45;24.20;;;;;;;7.91;70.63;100225.09;4413963;32;33079;-79
2021/11/14 01:40:45;;;;;;;41.78;22.70;;;;;;;7.85;70.59;100222.91;4401610;32;32376;-79
2021/11/14 01:43:16;;;;;;;41.50;23.20;;;;;;;7.64;71.53;100227.19;4402852;32;35801;-78
2021/11/14 01:45:44;;;;;;;41.88;26.23;;;;;;;7.28;73.02;100224.63;4400284;32;33571;-78
2021/11/14 01:48:11;;;;;;;44.72;23.65;;;;;;;7.26;72.99;100229.19;4391325;32;33363;-79
2021/11/14 01:50:45;;;;;;;48.63;26.12;;;;;;;7.19;73.42;100225.31;4403933;32;34063;-79
2021/11/14 01:53:14;;;;;;;47.65;26.27;;;;;;;7.07;73.99;100228.84;4389464;32;35885;-78
2021/11/14 01:55:43;;;;;;;56.40;24.60;;;;;;;7.04;74.41;100234.34;4390011;32;34269;-78
2021/11/14 01:58:18;;;;;;;45.15;26.17;;;;;;;7.11;74.22;100231.16;4402490;32;33512;-78
2021/11/14 02:01:00;;;;;;;61.45;26.35;;;;;;;7.03;74.75;100230.87;4402277;32;34007;-79
2021/11/14 02:03:31;;;;;;;50.05;28.80;;;;;;;7.11;74.23;100232.97;4407847;32;34653;-79
2021/11/14 02:06:00;;;;;;;42.45;27.40;;;;;;;6.96;75.01;100250.78;4397988;32;32709;-79
2021/11/14 02:08:29;;;;;;;56.55;29.08;;;;;;;6.67;76.10;100246.75;4413550;32;32342;-78
2021/11/14 02:10:57;;;;;;;72.95;28.58;;;;;;;6.70;75.87;100243.03;4425975;32;34483;-79
2021/11/14 02:13:27;;;;;;;59.13;27.40;;;;;;;6.59;76.58;100240.28;4413352;32;33897;-79
2021/11/14 02:15:56;;;;;;;53.65;26.42;;;;;;;6.53;76.87;100248.66;4402019;32;35022;-78
2021/11/14 02:18:28;;;;;;;55.53;31.10;;;;;;;6.70;76.36;100237.75;4400779;32;34123;-78
2021/11/14 02:20:56;;;;;;;69.35;27.65;;;;;;;6.73;76.25;100240.16;4413662;32;33988;-78
2021/11/14 02:23:25;;;;;;;46.42;25.40;;;;;;;6.91;75.61;100233.56;4409552;32;35025;-78
2021/11/14 02:25:54;;;;;;;35.35;21.15;;;;;;;6.77;76.03;100238.97;4391455;32;33000;-78
2021/11/14 02:28:23;;;;;;;46.55;24.70;;;;;;;6.94;75.41;100214.81;4400495;32;33573;-78
2021/11/14 02:30:54;;;;;;;63.97;28.75;;;;;;;6.87;75.51;100221.50;4392900;32;33203;-79
2021/11/14 02:33:26;;;;;;;55.08;25.95;;;;;;;7.01;75.08;100227.47;4401203;32;34711;-78
2021/11/14 02:36:01;;;;;;;40.17;28.40;;;;;;;7.07;75.34;100228.84;4401176;32;35506;-79
2021/11/14 02:38:32;;;;;;;32.97;24.30;;;;;;;7.17;74.58;100238.62;4415992;32;34576;-78
2021/11/14 02:41:07;;;;;;;53.80;26.40;;;;;;;7.54;73.41;100237.59;4407656;32;34268;-79
2021/11/14 02:43:39;;;;;;;48.50;26.85;;;;;;;7.80;71.80;100238.28;4401152;32;34765;-78
2021/11/14 02:46:08;;;;;;;39.00;27.20;;;;;;;7.68;72.09;100233.94;4408215;32;34392;-79
2021/11/14 02:48:36;;;;;;;47.13;27.05;;;;;;;7.68;71.92;100242.72;4385360;32;32409;-78
2021/11/14 02:51:09;;;;;;;45.50;29.05;;;;;;;7.44;72.47;100252.50;4399318;32;32977;-79
2021/11/14 02:53:38;;;;;;;53.67;28.27;;;;;;;7.43;72.52;100250.81;4388201;32;36010;-78
2021/11/14 02:56:07;;;;;;;36.63;24.50;;;;;;;7.55;72.33;100249.88;4397775;32;32849;-79
2021/11/14 02:58:38;;;;;;;54.92;29.33;;;;;;;7.53;72.28;100261.53;4411503;32;33616;-78
2021/11/14 03:01:23;;;;;;;39.45;23.65;;;;;;;7.63;71.71;100250.16;4397621;32;32502;-78
2021/11/14 03:03:52;;;;;;;45.80;25.62;;;;;;;7.68;71.84;100242.72;4394998;32;35259;-79
2021/11/14 03:06:23;;;;;;;60.35;28.75;;;;;;;7.39;73.00;100245.84;4402108;32;34413;-78
2021/11/14 03:08:51;;;;;;;37.80;28.12;;;;;;;7.36;73.22;100243.44;4415156;32;33983;-78
2021/11/14 03:11:19;;;;;;;46.92;25.80;;;;;;;7.37;73.14;100235.38;4414459;32;33567;-78
2021/11/14 03:14:06;;;;;;;54.42;26.85;;;;;;;7.47;72.62;100249.59;4402689;32;36656;-78
2021/11/14 03:16:35;;;;;;;58.97;28.87;;;;;;;7.45;72.77;100246.22;4400742;32;33906;-79
2021/11/14 03:19:04;;;;;;;36.63;26.92;;;;;;;7.31;73.47;100254.37;4413172;32;32945;-78
2021/11/14 03:21:33;;;;;;;42.30;25.10;;;;;;;7.30;73.38;100254.47;4400472;32;33676;-78
2021/11/14 03:24:02;;;;;;;59.92;29.33;;;;;;;7.09;73.98;100275.38;4401461;32;34348;-78
2021/11/14 03:26:31;;;;;;;42.78;23.92;;;;;;;7.26;73.79;100271.53;4400632;32;32957;-79
2021/11/14 03:29:02;;;;;;;47.90;27.37;;;;;;;7.45;73.06;100267.41;4413880;32;32951;-78
2021/11/14 03:31:32;;;;;;;50.05;26.12;;;;;;;7.53;72.67;100259.75;4414003;32;33084;-78
2021/11/14 03:34:00;;;;;;;48.08;23.38;;;;;;;7.54;72.74;100272.03;4415190;32;35910;-78
2021/11/14 03:36:28;;;;;;;38.13;25.17;;;;;;;7.52;72.78;100271.28;4411813;32;34458;-78
2021/11/14 03:39:00;;;;;;;48.60;25.60;;;;;;;7.58;72.69;100268.22;4400008;32;34357;-80
2021/11/14 03:41:31;;;;;;;43.90;24.37;;;;;;;7.51;72.89;100266.97;4414269;32;33868;-78
2021/11/14 03:44:00;;;;;;;41.63;22.33;;;;;;;7.71;72.08;100254.88;4414025;32;33199;-79
2021/11/14 03:46:29;;;;;;;30.77;20.27;;;;;;;7.75;71.98;100259.00;4388659;32;34000;-78
2021/11/14 03:48:59;;;;;;;42.03;25.08;;;;;;;7.79;71.80;100257.78;4414178;32;34067;-78
2021/11/14 03:51:28;;;;;;;41.60;27.05;;;;;;;7.69;72.22;100260.31;4399074;32;33669;-79
2021/11/14 03:53:57;;;;;;;37.45;23.77;;;;;;;7.59;72.80;100266.38;4412030;32;34271;-79
2021/11/14 03:56:28;;;;;;;55.45;28.70;;;;;;;7.79;72.47;100266.59;4399868;32;33687;-78
2021/11/14 03:58:56;;;;;;;39.05;22.65;;;;;;;8.00;72.02;100275.56;4401521;32;32199;-78
2021/11/14 04:01:26;;;;;;;42.22;24.30;;;;;;;8.44;70.11;100271.19;4398519;32;33597;-78
2021/11/14 04:03:55;;;;;;;30.25;24.42;;;;;;;8.49;69.51;100271.69;4397961;32;36033;-78
2021/11/14 04:06:23;;;;;;;35.28;22.35;;;;;;;8.36;70.10;100275.44;4400085;32;35042;-79
2021/11/14 04:08:53;;;;;;;37.08;22.42;;;;;;;8.29;70.53;100278.69;4401547;32;34494;-78
2021/11/14 04:11:21;;;;;;;34.75;23.40;;;;;;;8.70;68.71;100272.66;4411796;32;34005;-78
2021/11/14 04:13:53;;;;;;;34.30;22.85;;;;;;;8.78;68.13;100261.44;4412643;32;33980;-78
2021/11/14 04:16:21;;;;;;;47.22;22.55;;;;;;;8.66;68.90;100265.06;4414829;32;34551;-78
2021/11/14 04:18:48;;;;;;;43.78;22.67;;;;;;;8.91;67.51;100260.34;4398434;32;32663;-78
2021/11/14 04:21:16;;;;;;;40.30;20.27;;;;;;;8.96;67.23;100259.97;4401100;32;32992;-78
2021/11/14 04:23:45;;;;;;;36.38;23.25;;;;;;;8.80;67.85;100260.34;4398731;32;33364;-78
2021/11/14 04:26:13;;;;;;;39.80;21.85;;;;;;;8.57;68.59;100266.66;4413600;32;34220;-79
2021/11/14 04:28:41;;;;;;;34.13;24.85;;;;;;;8.67;68.58;100269.41;4391445;32;32528;-79
2021/11/14 04:31:11;;;;;;;39.72;21.83;;;;;;;8.75;67.99;100273.16;4415012;32;33037;-78
2021/11/14 04:33:39;;;;;;;42.58;24.90;;;;;;;8.65;68.47;100274.00;4400874;32;34841;-78
2021/11/14 04:36:07;;;;;;;;;;;;;;;8.43;68.50;100271.34;4401418;32;35256;-78
2021/11/14 04:38:36;;;;;;;;;;;;;;;8.63;67.78;100267.97;4416131;32;33211;-78
2021/11/14 04:41:03;;;;;;;43.90;23.60;;;;;;;8.65;68.06;100266.91;4417514;32;34316;-78
2021/11/14 04:43:31;;;;;;;36.28;22.83;;;;;;;8.42;68.65;100274.97;4405825;32;35924;-78
2021/11/14 04:45:59;;;;;;;;;;;;;;;8.19;69.60;100262.62;4406937;32;35694;-78
2021/11/14 04:48:28;;;;;;;43.25;21.95;;;;;;;8.40;69.37;100265.44;4417231;32;34262;-79
2021/11/14 04:50:56;;;;;;;39.28;21.48;;;;;;;8.32;69.43;100266.03;4405252;32;34562;-79
2021/11/14 04:53:24;;;;;;;;;;;;;;;8.26;69.93;100263.00;4404771;32;34731;-78
2021/11/14 04:55:56;;;;;;;34.00;20.55;;;;;;;8.32;69.18;100255.44;4419810;32;34430;-79
2021/11/14 04:58:25;;;;;;;29.70;22.92;;;;;;;7.99;70.52;100263.28;4402652;32;32675;-79
2021/11/14 05:00:54;;;;;;;35.58;19.17;;;;;;;7.96;70.49;100265.31;4405485;32;33859;-79
2021/11/14 05:03:23;;;;;;;27.08;18.90;;;;;;;7.83;70.93;100270.69;4403932;32;33761;-78
2021/11/14 05:05:56;;;;;;;20.52;17.12;;;;;;;8.23;69.30;100272.03;4392800;32;33219;-79
2021/11/14 05:08:25;;;;;;;30.17;18.55;;;;;;;8.15;69.70;100282.34;4403212;32;32791;-78
2021/11/14 05:10:53;;;;;;;29.27;20.30;;;;;;;8.08;69.63;100283.78;4405427;32;33780;-78
2021/11/14 05:13:25;;;;;;;22.50;18.80;;;;;;;8.18;69.33;100283.91;4403970;32;35166;-78
2021/11/14 05:15:53;;;;;;;33.08;21.83;;;;;;;7.73;71.17;100284.75;4416957;32;33881;-78
2021/11/14 05:18:21;;;;;;;29.65;22.50;;;;;;;7.92;70.54;100296.47;4417382;32;32995;-78
2021/11/14 05:20:49;;;;;;;23.73;17.67;;;;;;;7.75;71.18;100294.25;4398947;32;32316;-78
2021/11/14 05:23:17;;;;;;;;;;;;;;;7.61;71.62;100299.75;4404692;32;34755;-78
2021/11/14 05:25:46;;;;;;;24.42;18.50;;;;;;;7.73;71.03;100292.69;4429654;32;34831;-79
2021/11/14 05:28:15;;;;;;;28.30;21.00;;;;;;;7.73;71.23;100295.34;4396913;32;32936;-79
2021/11/14 05:30:43;;;;;;;47.88;23.10;;;;;;;7.03;73.25;100294.37;4398213;32;34024;-78
2021/11/14 05:33:11;;;;;;;28.58;18.83;;;;;;;7.51;72.27;100304.03;4413848;32;33818;-78
2021/11/14 05:35:39;;;;;;;34.70;20.05;;;;;;;7.71;71.50;100299.88;4418251;32;35230;-78
2021/11/14 05:38:08;;;;;;;40.67;19.33;;;;;;;7.62;71.82;100303.22;4402984;32;33883;-79
2021/11/14 05:40:35;;;;;;;27.98;17.55;;;;;;;7.66;71.66;100294.94;4404793;32;33392;-78
2021/11/14 05:43:03;;;;;;;;;;;;;;;7.40;72.63;100301.31;4418882;32;34168;-78
2021/11/14 05:45:33;;;;;;;39.50;21.20;;;;;;;7.42;72.82;100301.19;4427671;32;35587;-79
2021/11/14 05:48:00;;;;;;;37.85;19.75;;;;;;;7.45;72.62;100295.69;4428703;32;33509;-78
2021/11/14 05:50:28;;;;;;;28.12;17.62;;;;;;;7.31;73.49;100296.72;4415093;32;34517;-77
2021/11/14 05:52:57;;;;;;;43.63;21.10;;;;;;;7.35;73.55;100306.09;4399009;32;34166;-79
2021/11/14 05:55:26;;;;;;;32.78;20.15;;;;;;;7.66;72.50;100307.34;4426780;32;34292;-78
2021/11/14 05:58:01;;;;;;;30.42;18.95;;;;;;;8.05;70.65;100304.34;4400214;32;33616;-79
2021/11/14 06:00:45;;;;;;;31.62;18.05;;;;;;;7.88;71.48;100318.87;4379461;32;32904;-78
2021/11/14 06:06:11;;;;;;;35.38;18.23;;;;;;;8.29;69.71;100324.56;4418178;32;34355;-78
2021/11/14 06:08:39;;;;;;;32.42;18.02;;;;;;;8.45;68.95;100327.75;4414371;32;33453;-79
2021/11/14 06:11:07;;;;;;;27.08;18.90;;;;;;;8.21;69.49;100329.59;4408412;32;34116;-78
2021/11/14 06:13:34;;;;;;;33.47;19.60;;;;;;;8.25;69.31;100339.03;4425215;32;34583;-78
2021/11/14 06:16:02;;;;;;;;;;;;;;;8.31;69.54;100345.66;4389760;32;35202;-79
2021/11/14 06:18:30;;;;;;;23.60;18.87;;;;;;;8.22;69.70;100351.66;4412648;32;33921;-79
2021/11/14 06:21:00;;;;;;;35.08;17.90;;;;;;;8.36;69.37;100344.34;4403966;32;33152;-79
2021/11/14 06:23:29;;;;;;;40.38;19.15;;;;;;;8.43;68.95;100356.19;4400173;32;34505;-78
2021/11/14 06:25:57;;;;;;;27.42;18.75;;;;;;;8.30;69.52;100349.28;4414730;32;34723;-78
2021/11/14 06:28:24;;;;;;;28.70;17.95;;;;;;;8.63;68.34;100351.00;4400460;32;33618;-78
2021/11/14 06:30:53;;;;;;;29.63;17.85;;;;;;;8.55;68.58;100345.50;4414096;32;33300;-78
2021/11/14 06:33:21;;;;;;;27.00;17.52;;;;;;;8.34;69.12;100356.03;4389669;32;34395;-79
2021/11/14 06:35:54;;;;;;;23.70;20.33;;;;;;;8.30;69.56;100362.53;4400442;32;34106;-77
2021/11/14 06:38:21;;;;;;;24.77;16.35;;;;;;;8.33;69.78;100357.00;4401316;32;32602;-78
2021/11/14 06:40:49;;;;;;;;;;;;;;;8.51;69.33;100354.63;4388192;32;32885;-78
2021/11/14 06:43:18;;;;;;;31.00;23.73;;;;;;;8.66;69.17;100360.53;4414405;32;36982;-77
2021/11/14 06:45:46;;;;;;;46.33;23.62;;;;;;;8.71;69.26;100355.75;4398964;32;34301;-78
2021/11/14 06:48:14;;;;;;;27.30;20.50;;;;;;;8.91;68.48;100366.47;4392606;32;33883;-78
2021/11/14 06:50:43;;;;;;;34.67;20.33;;;;;;;9.04;68.12;100377.84;4410830;32;32498;-78
2021/11/14 06:53:11;;;;;;;23.60;18.27;;;;;;;9.06;68.05;100383.84;4427265;32;34470;-77
2021/11/14 06:55:39;;;;;;;21.08;18.70;;;;;;;9.11;66.83;100380.84;4398342;32;34828;-78
2021/11/14 06:58:11;;;;;;;32.50;18.77;;;;;;;9.28;65.77;100373.22;4401359;32;33056;-78
2021/11/14 07:00:42;;;;;;;;;;;;;;;9.31;66.24;100373.00;4400470;32;34722;-78
2021/11/14 07:03:11;;;;;;;30.50;19.27;;;;;;;9.22;66.86;100370.22;4413621;32;33737;-78
2021/11/14 07:05:38;;;;;;;;;;;;;;;9.46;66.11;100373.56;4412298;32;33194;-78
2021/11/14 07:08:07;;;;;;;;;;;;;;;9.28;66.82;100373.22;4416178;32;34123;-78
2021/11/14 07:10:36;;;;;;;27.13;18.65;;;;;;;9.45;65.99;100374.56;4426926;32;33838;-78
2021/11/14 07:13:04;;;;;;;28.90;19.25;;;;;;;9.44;66.35;100376.34;4388964;32;36274;-78
2021/11/14 07:15:33;;;;;;;33.50;19.65;;;;;;;9.36;66.90;100375.28;4411595;32;34831;-78
2021/11/14 07:18:02;;;;;;;23.12;16.73;;;;;;;9.38;66.78;100373.34;4400340;32;32173;-77
2021/11/14 07:20:31;;;;;;;34.70;21.80;;;;;;;9.64;65.49;100370.25;4401290;32;34580;-78
2021/11/14 07:22:59;;;;;;;24.73;20.33;;;;;;;9.87;64.08;100369.25;4411529;32;34979;-78
2021/11/14 07:25:28;;;;;;;25.08;19.48;;;;;;;9.61;65.12;100369.66;4401079;32;33738;-78
2021/11/14 07:27:55;;;;;;;37.58;20.85;;;;;;;9.63;64.95;100373.06;4399506;32;33192;-78
2021/11/14 07:30:25;;;;;;;34.05;19.02;;;;;;;9.28;66.14;100380.34;4401054;32;34328;-78
2021/11/14 07:32:54;;;;;;;28.55;19.77;;;;;;;8.76;68.15;100388.91;4415074;32;34332;-79
2021/11/14 07:35:24;;;;;;;26.35;20.30;;;;;;;8.92;67.68;100385.91;4401836;32;34753;-77
2021/11/14 07:37:53;;;;;;;25.05;17.90;;;;;;;8.74;68.15;100384.69;4405925;32;33368;-78
2021/11/14 07:40:23;;;;;;;28.23;17.83;;;;;;;8.85;67.43;100385.53;4398621;32;34234;-78
2021/11/14 07:42:53;;;;;;;29.40;21.65;;;;;;;8.73;68.16;100380.34;4399367;32;34192;-78
2021/11/14 07:45:24;;;;;;;25.65;18.90;;;;;;;8.68;68.72;100383.34;4411893;32;32738;-78
2021/11/14 07:47:53;;;;;;;29.83;21.05;;;;;;;8.90;68.25;100372.75;4398090;32;32608;-78
2021/11/14 07:50:25;;;;;;;30.05;20.27;;;;;;;8.81;68.52;100378.75;4414012;32;33287;-78
2021/11/14 07:52:55;;;;;;;21.00;14.93;;;;;;;8.63;68.83;100385.50;4401885;32;36220;-78
2021/11/14 07:55:23;;;;;;;27.20;17.75;;;;;;;8.95;68.17;100383.84;4399685;32;33331;-79
2021/11/14 07:57:51;;;;;;;22.27;17.45;;;;;;;8.78;68.88;100381.66;4410017;32;34098;-79
2021/11/14 08:00:21;;;;;;;17.50;15.82;;;;;;;8.98;68.00;100388.91;4411762;32;35160;-79
2021/11/14 08:02:53;;;;;;;24.52;17.50;;;;;;;9.10;67.88;100387.13;4411358;32;34539;-79
2021/11/14 08:05:22;;;;;;;20.23;17.08;;;;;;;9.11;67.55;100379.06;4400705;32;33387;-79
2021/11/14 08:07:53;;;;;;;30.50;18.17;;;;;;;8.98;67.89;100383.59;4401912;32;33754;-79
2021/11/14 08:10:24;;;;;;;39.72;21.67;;;;;;;9.06;67.85;100383.84;4388822;32;34006;-79
2021/11/14 08:12:54;;;;;;;19.37;17.27;;;;;;;9.07;67.58;100390.03;4398877;32;35390;-79
2021/11/14 08:15:25;;;;;;;23.00;15.77;;;;;;;8.93;68.23;100387.59;4399038;32;33222;-79
2021/11/14 08:17:57;;;;;;;31.40;18.95;;;;;;;9.03;67.42;100393.88;4387743;32;32605;-79
2021/11/14 08:20:25;;;;;;;20.70;17.65;;;;;;;8.74;68.26;100389.97;4387252;32;33730;-79
2021/11/14 08:22:59;;;;;;;27.27;16.20;;;;;;;8.69;68.46;100389.50;4388800;32;34701;-79
2021/11/14 08:25:29;;;;;;;22.13;16.40;;;;;;;8.62;68.89;100390.94;4426450;32;33592;-79
2021/11/14 08:27:58;;;;;;;38.83;16.73;;;;;;;8.69;68.87;100397.47;4400989;32;33539;-79
2021/11/14 08:30:30;;;;;;;23.12;17.87;;;;;;;8.93;68.20;100399.06;4397762;32;32710;-78
2021/11/14 08:33:03;;;;;;;32.28;19.73;;;;;;;8.90;68.26;100403.75;4411308;32;33629;-78
2021/11/14 08:35:35;;;;;;;26.45;16.50;;;;;;;8.74;69.15;100404.09;4413623;32;33716;-78
2021/11/14 08:38:08;;;;;;;21.58;19.30;;;;;;;9.01;68.46;100401.09;4411925;32;33176;-78
2021/11/14 08:40:38;;;;;;;26.25;16.30;;;;;;;9.29;67.63;100405.94;4412792;32;33634;-79
2021/11/14 08:43:09;;;;;;;30.85;20.27;;;;;;;9.27;67.36;100410.53;4413021;32;34447;-79
2021/11/14 08:45:42;;;;;;;27.10;19.08;;;;;;;9.49;66.33;100411.38;4411347;32;33910;-78
2021/11/14 08:48:14;;;;;;;28.08;19.37;;;;;;;9.59;65.69;100411.44;4399305;32;33003;-78
2021/11/14 08:50:48;;;;;;;26.15;18.65;;;;;;;9.67;65.26;100419.66;4413044;32;34538;-78
2021/11/14 08:53:19;;;;;;;25.83;18.40;;;;;;;9.45;66.54;100427.66;4411880;32;35445;-79
2021/11/14 08:55:56;;;;;;;30.60;19.75;;;;;;;9.49;66.99;100429.97;4405591;32;33762;-79
2021/11/14 08:58:36;;;;;;;24.87;21.33;;;;;;;9.68;64.85;100424.84;4412058;32;34543;-78
2021/11/14 09:01:09;;;;;;;29.35;18.83;;;;;;;9.68;65.42;100429.31;4413149;32;34206;-79
2021/11/14 09:03:39;;;;;;;23.42;16.90;;;;;;;9.69;65.96;100441.63;4413223;32;33964;-79
2021/11/14 09:06:10;;;;;;;23.75;16.60;;;;;;;9.95;65.24;100440.37;4397987;32;34408;-79
2021/11/14 09:08:40;;;;;;;33.50;22.33;;;;;;;10.10;64.61;100432.00;4386132;32;32160;-79
2021/11/14 09:11:16;;;;;;;19.70;17.33;;;;;;;9.88;65.08;100439.16;4400421;32;32906;-78
2021/11/14 09:13:48;;;;;;;28.95;20.58;;;;;;;9.65;66.25;100442.84;4400561;32;35777;-79
2021/11/14 09:16:19;;;;;;;26.27;18.42;;;;;;;9.94;65.40;100434.19;4398713;32;35451;-78
2021/11/14 09:18:49;;;;;;;28.70;20.98;;;;;;;10.17;63.73;100437.66;4400690;32;33050;-78
2021/11/14 09:21:21;;;;;;;20.20;17.83;;;;;;;10.01;64.84;100434.56;4411867;32;33778;-79
2021/11/14 09:23:51;;;;;;;26.30;19.37;;;;;;;9.68;66.77;100430.16;4413653;32;34512;-79
2021/11/14 09:26:21;;;;;;;21.25;17.27;;;;;;;10.22;64.57;100431.03;4401928;32;33127;-78
2021/11/14 09:28:51;;;;;;;25.23;18.52;;;;;;;10.39;64.43;100435.75;4402531;32;33116;-79
2021/11/14 09:31:21;;;;;;;29.37;18.08;;;;;;;10.73;62.10;100426.66;4412146;32;33398;-79
2021/11/14 09:33:54;;;;;;;24.50;19.08;;;;;;;11.01;61.86;100427.78;4402432;32;34593;-79
2021/11/14 09:36:30;;;;;;;20.95;17.05;;;;;;;11.03;61.47;100433.84;4402669;32;35125;-79
2021/11/14 09:38:59;;;;;;;27.17;21.35;;;;;;;10.78;62.69;100436.91;4414911;32;32740;-79
2021/11/14 09:41:30;;;;;;;24.60;20.37;;;;;;;11.39;60.48;100426.16;4398617;32;35388;-79
2021/11/14 09:44:03;;;;;;;31.42;18.00;;;;;;;11.20;60.21;100428.75;4401570;32;34879;-79
2021/11/14 09:46:40;;;;;;;24.55;18.33;;;;;;;11.31;59.21;100431.31;4402261;32;33945;-79
2021/11/14 09:49:09;;;;;;;23.73;17.20;;;;;;;10.87;61.58;100430.81;4410131;32;34409;-79
2021/11/14 09:51:42;;;;;;;32.13;19.58;;;;;;;10.88;61.43;100430.69;4400553;32;34861;-78
2021/11/14 09:54:12;;;;;;;22.85;16.42;;;;;;;10.92;61.41;100424.09;4408624;32;34167;-79
2021/11/14 09:56:41;;;;;;;28.75;18.73;;;;;;;10.95;60.65;100429.16;4402403;32;34373;-78
2021/11/14 09:59:11;;;;;;;21.77;19.35;;;;;;;11.06;60.78;100431.78;4402232;32;34569;-79
2021/11/14 10:01:46;;;;;;;32.05;21.15;;;;;;;11.11;60.26;100426.06;4399779;32;33354;-80
2021/11/14 10:04:16;;;;;;;26.05;17.23;;;;;;;11.31;60.15;100412.66;4413771;32;33671;-80
2021/11/14 10:06:55;;;;;;;33.85;16.27;;;;;;;11.34;59.84;100417.75;4407490;32;33457;-79
2021/11/14 10:09:38;;;;;;;24.33;18.40;;;;;;;10.99;62.81;100419.09;4426856;32;32374;-79
2021/11/14 10:12:21;;;;;;;31.62;21.98;;;;;;;11.59;59.11;100422.63;4426735;32;34085;-79
2021/11/14 10:15:06;;;;;;;20.75;18.55;;;;;;;11.49;59.52;100419.06;4425310;32;33839;-79
2021/11/14 10:17:35;;;;;;;23.00;16.52;;;;;;;11.47;59.04;100410.34;4414282;32;34922;-79
2021/11/14 10:20:07;;;;;;;27.08;19.83;;;;;;;11.31;59.37;100404.69;4384923;32;32874;-79
2021/11/14 10:22:43;;;;;;;21.35;17.52;;;;;;;11.13;60.17;100402.78;4410766;32;33248;-79
2021/11/14 10:25:12;;;;;;;22.27;18.27;;;;;;;11.24;60.06;100405.34;4414267;32;34195;-79
2021/11/14 10:27:41;;;;;;;33.55;19.70;;;;;;;11.15;60.15;100406.97;4412499;32;33154;-78
2021/11/14 10:30:12;;;;;;;21.58;19.08;;;;;;;11.16;61.08;100406.03;4387712;32;32750;-79
2021/11/14 10:32:42;;;;;;;19.10;17.12;;;;;;;11.54;61.62;100406.19;4414048;32;33484;-79
2021/11/14 10:35:11;;;;;;;22.83;16.98;;;;;;;11.87;59.26;100406.72;4398379;32;35161;-79
2021/11/14 10:37:44;;;;;;;;;;;;;;;11.97;57.61;100401.38;4389775;32;33722;-78
2021/11/14 10:40:24;;;;;;;21.42;16.95;;;;;;;12.04;58.39;100419.38;4413239;32;32819;-79
2021/11/14 10:42:56;;;;;;;19.73;17.15;;;;;;;12.21;57.34;100409.84;4380795;32;33961;-79
2021/11/14 10:45:28;;;;;;;19.35;16.50;;;;;;;12.48;56.97;100407.31;4412635;32;34651;-79
2021/11/14 10:48:04;;;;;;;19.48;17.48;;;;;;;12.86;55.29;100409.91;4414429;32;34246;-79
2021/11/14 10:50:41;;;;;;;22.55;17.70;;;;;;;12.78;54.38;100404.47;4385581;32;34339;-79
2021/11/14 10:53:21;;;;;;;17.15;14.70;;;;;;;12.56;55.52;100405.59;4418225;32;33312;-79
2021/11/14 10:55:56;;;;;;;23.35;19.33;;;;;;;12.50;57.50;100400.84;4412812;32;34250;-79
2021/11/14 10:58:25;;;;;;;29.87;19.00;;;;;;;13.06;54.35;100403.56;4401973;32;34962;-79
2021/11/14 11:00:58;;;;;;;17.92;14.15;;;;;;;12.71;56.09;100406.00;4402298;32;32718;-79
2021/11/14 11:03:38;;;;;;;22.75;17.05;;;;;;;12.87;55.70;100387.56;4414441;32;32984;-80
2021/11/14 11:06:09;;;;;;;18.23;16.20;;;;;;;13.18;53.67;100387.22;4414194;32;34006;-79
2021/11/14 11:08:37;;;;;;;27.83;17.73;;;;;;;13.16;54.61;100383.00;4425405;32;34825;-79
2021/11/14 11:11:26;;;;;;;22.42;14.85;;;;;;;13.37;54.13;100373.78;4401366;32;32279;-79
2021/11/14 11:13:55;;;;;;;18.90;16.50;;;;;;;13.43;53.50;100375.03;4414374;32;34598;-79
2021/11/14 11:16:26;;;;;;;19.58;15.57;;;;;;;13.53;53.42;100383.81;4399509;32;35237;-79
2021/11/14 11:18:59;;;;;;;19.73;16.70;;;;;;;13.77;52.15;100371.56;4412356;32;33594;-79
2021/11/14 11:21:35;;;;;;;18.37;16.23;;;;;;;13.61;53.21;100376.72;4414203;32;34680;-79
2021/11/14 11:24:15;;;;;;;16.48;14.45;;;;;;;13.67;53.70;100378.00;4382688;32;33054;-79
2021/11/14 11:27:03;;;;;;;36.45;20.33;;;;;;;14.08;52.01;100372.06;4404448;32;34171;-79
2021/11/14 11:29:35;;;;;;;26.77;15.02;;;;;;;14.00;51.73;100367.50;4412231;32;33768;-79
2021/11/14 11:32:06;;;;;;;18.40;16.17;;;;;;;14.24;50.24;100365.06;4400900;32;33329;-79
2021/11/14 11:34:35;;;;;;;18.62;16.00;;;;;;;14.09;50.91;100369.25;4399956;32;34449;-80
2021/11/14 11:37:04;;;;;;;26.27;14.98;;;;;;;14.13;50.79;100367.13;4388968;32;34880;-80